createdAt,value
2017-06-04T00:02:11.574Z,101421.26
2017-06-04T00:04:37.777Z,101414.52
2017-06-04T00:07:03.944Z,101414.57
2017-06-04T00:24:18.690Z,101421.74
2017-06-04T00:26:44.883Z,101419.97
2017-06-04T00:29:11.110Z,101422.66
2017-06-04T00:31:37.294Z,101426.70
2017-06-04T00:34:03.557Z,101428.92
2017-06-04T00:36:29.757Z,101432.53
2017-06-04T00:47:45.458Z,101430.00
2017-06-04T00:50:11.670Z,101430.37
2017-06-04T01:07:21.742Z,101430.05
2017-06-04T01:27:30.995Z,101431.95
2017-06-04T01:29:57.257Z,101428.39
2017-06-04T01:32:23.422Z,101429.80
2017-06-04T01:34:49.661Z,101430.60
2017-06-04T01:37:15.873Z,101437.78
2017-06-04T01:48:31.482Z,101424.29
2017-06-04T01:50:57.697Z,101424.29
2017-06-04T02:02:19.206Z,101412.16
2017-06-04T02:04:45.423Z,101413.61
2017-06-04T02:07:11.636Z,101418.03
2017-06-04T02:09:37.919Z,101421.27
2017-06-04T02:12:04.079Z,101416.73
2017-06-04T02:14:30.247Z,101417.17
2017-06-04T02:16:56.562Z,101420.78
2017-06-04T02:19:22.779Z,101415.02
2017-06-04T02:21:48.996Z,101410.48
2017-06-04T02:24:21.094Z,101407.84
2017-06-04T02:26:47.258Z,101410.54
2017-06-04T02:29:13.550Z,101407.52
2017-06-04T02:31:39.741Z,101407.41
2017-06-04T02:34:06.023Z,101405.73
2017-06-04T02:36:32.199Z,101412.48
2017-06-04T02:48:13.174Z,101419.89
2017-06-04T02:50:39.398Z,101418.98
2017-06-04T03:07:50.501Z,101428.36
2017-06-04T03:28:56.802Z,101435.55
2017-06-04T03:31:22.988Z,101432.27
2017-06-04T03:33:49.142Z,101430.32
2017-06-04T03:36:15.297Z,101431.99
2017-06-04T03:47:57.706Z,101435.53
2017-06-04T03:50:23.920Z,101436.02
2017-06-04T03:52:50.110Z,101436.02
2017-06-04T03:58:18.783Z,101439.70
2017-06-04T04:00:45.018Z,101440.19
2017-06-04T04:03:11.221Z,101433.45
2017-06-04T04:05:37.469Z,101438.41
2017-06-04T04:08:03.650Z,101441.59
2017-06-04T04:10:29.797Z,101444.77
2017-06-04T04:12:55.973Z,101443.42
2017-06-04T04:15:22.171Z,101441.75
2017-06-04T04:17:48.346Z,101443.95
2017-06-04T04:20:14.554Z,101446.17
2017-06-04T04:22:40.795Z,101442.28
2017-06-04T04:28:05.570Z,101450.80
2017-06-04T04:30:31.734Z,101449.08
2017-06-04T04:32:58.009Z,101450.42
2017-06-04T04:35:24.213Z,101449.09
2017-06-04T04:37:50.411Z,101449.15
2017-06-04T04:40:22.594Z,101450.50
2017-06-04T04:42:48.758Z,101455.41
2017-06-04T04:45:15.493Z,101453.14
2017-06-04T04:47:41.637Z,101459.88
2017-06-04T04:50:07.834Z,101458.69
2017-06-04T04:52:34.165Z,101458.09
2017-06-04T05:06:46.418Z,101469.80
2017-06-04T05:09:18.667Z,101470.34
2017-06-04T05:11:44.828Z,101470.23
2017-06-04T05:14:11.026Z,101468.86
2017-06-04T05:16:37.295Z,101472.01
2017-06-04T05:19:03.454Z,101474.76
2017-06-04T05:21:29.701Z,101473.46
2017-06-04T05:26:52.443Z,101480.09
2017-06-04T05:29:24.855Z,101473.41
2017-06-04T05:31:51.131Z,101480.25
2017-06-04T05:34:17.360Z,101481.98
2017-06-04T05:36:43.601Z,101480.63
2017-06-04T05:47:59.380Z,101501.81
2017-06-04T05:50:25.542Z,101499.66
2017-06-04T05:52:51.722Z,101501.92
2017-06-04T05:58:20.329Z,101505.53
2017-06-04T06:00:46.692Z,101504.56
2017-06-04T06:03:12.862Z,101505.00
2017-06-04T06:05:39.074Z,101509.95
2017-06-04T06:08:05.296Z,101506.39
2017-06-04T06:25:19.825Z,101526.56
2017-06-04T06:27:46.042Z,101531.09
2017-06-04T06:30:12.321Z,101528.34
2017-06-04T06:32:38.495Z,101526.56
2017-06-04T06:35:04.669Z,101532.44
2017-06-04T06:37:30.851Z,101538.58
2017-06-04T06:48:46.789Z,101547.80
2017-06-04T06:51:12.970Z,101553.34
2017-06-04T07:08:23.867Z,101550.11
2017-06-04T07:28:30.804Z,101562.60
2017-06-04T07:30:56.979Z,101566.61
2017-06-04T07:33:23.182Z,101566.54
2017-06-04T07:35:49.406Z,101575.97
2017-06-04T07:38:15.611Z,101564.29
2017-06-04T07:49:34.410Z,101583.31
2017-06-04T07:52:00.680Z,101580.39
2017-06-04T08:06:21.897Z,101597.69
2017-06-04T08:08:48.219Z,101594.66
2017-06-04T08:11:20.270Z,101594.21
2017-06-04T08:13:48.968Z,101596.18
2017-06-04T08:16:18.513Z,101600.45
2017-06-04T08:18:44.712Z,101599.50
2017-06-04T08:21:10.938Z,101599.59
2017-06-04T08:23:37.914Z,101609.20
2017-06-04T08:29:00.799Z,101607.77
2017-06-04T08:31:26.999Z,101606.90
2017-06-04T08:33:53.688Z,101610.41
2017-06-04T08:36:21.600Z,101608.27
2017-06-04T08:38:48.565Z,101606.03
2017-06-04T08:41:25.538Z,101607.09
2017-06-04T08:43:52.789Z,101608.39
2017-06-04T08:46:19.682Z,101605.41
2017-06-04T08:48:46.316Z,101606.95
2017-06-04T08:51:12.873Z,101611.12
2017-06-04T08:53:39.136Z,101609.59
2017-06-04T09:07:53.491Z,101625.50
2017-06-04T09:13:22.737Z,101631.51
2017-06-04T09:15:48.952Z,101629.06
2017-06-04T09:18:15.178Z,101639.30
2017-06-04T09:20:41.377Z,101637.76
2017-06-04T09:23:07.569Z,101640.79
2017-06-04T09:28:30.369Z,101640.45
2017-06-04T09:30:59.635Z,101638.81
2017-06-04T09:33:26.586Z,101633.67
2017-06-04T09:35:52.761Z,101645.36
2017-06-04T09:38:19.032Z,101643.27
2017-06-04T09:49:41.719Z,101660.98
2017-06-04T09:52:08.023Z,101660.16
2017-06-04T09:54:34.203Z,101666.84
2017-06-04T10:08:51.772Z,101671.93
2017-06-04T10:11:23.036Z,101673.47
2017-06-04T10:13:49.205Z,101670.11
2017-06-04T10:16:15.483Z,101669.48
2017-06-04T10:18:41.691Z,101686.17
2017-06-04T10:21:07.921Z,101690.71
2017-06-04T10:23:34.147Z,101686.63
2017-06-04T10:26:00.446Z,101686.19
2017-06-04T10:28:26.693Z,101693.70
2017-06-04T10:30:52.959Z,101700.09
2017-06-04T10:33:19.179Z,101698.94
2017-06-04T10:35:45.403Z,101695.55
2017-06-04T10:38:11.674Z,101704.18
2017-06-04T10:40:38.667Z,101705.09
2017-06-04T10:43:04.898Z,101704.27
2017-06-04T10:45:31.117Z,101701.52
2017-06-04T10:47:57.325Z,101704.28
2017-06-04T10:50:23.615Z,101708.17
2017-06-04T10:52:49.807Z,101718.03
2017-06-04T10:55:16.082Z,101711.34
2017-06-04T10:57:42.304Z,101716.78
2017-06-04T11:00:08.474Z,101711.52
2017-06-04T11:02:34.765Z,101718.13
2017-06-04T11:05:00.953Z,101719.04
2017-06-04T11:07:27.170Z,101721.87
2017-06-04T11:09:53.354Z,101712.94
2017-06-04T11:12:19.647Z,101722.89
2017-06-04T11:14:46.034Z,101715.91
2017-06-04T11:17:12.984Z,101722.45
2017-06-04T11:19:39.838Z,101728.41
2017-06-04T11:22:06.015Z,101722.27
2017-06-04T11:24:32.226Z,101728.23
2017-06-04T11:26:59.075Z,101725.88
2017-06-04T11:29:25.491Z,101721.17
2017-06-04T11:31:52.184Z,101724.58
2017-06-04T11:34:18.517Z,101730.20
2017-06-04T11:36:44.759Z,101732.71
2017-06-04T11:39:11.046Z,101727.41
2017-06-04T11:41:37.278Z,101732.02
2017-06-04T11:44:03.472Z,101729.48
2017-06-04T11:46:29.696Z,101730.88
2017-06-04T11:48:55.867Z,101733.61
2017-06-04T11:51:22.208Z,101733.84
2017-06-04T11:53:48.401Z,101736.05
2017-06-04T11:56:14.630Z,101744.47
2017-06-04T11:58:40.862Z,101743.84
2017-06-04T12:01:07.323Z,101750.97
2017-06-04T12:03:33.598Z,101740.25
2017-06-04T12:05:59.896Z,101741.64
2017-06-04T12:08:26.116Z,101740.83
2017-06-04T12:10:52.375Z,101753.04
2017-06-04T12:13:18.646Z,101738.95
2017-06-04T12:15:44.941Z,101736.64
2017-06-04T12:18:11.205Z,101740.72
2017-06-04T12:20:37.435Z,101742.55
2017-06-04T12:23:03.602Z,101735.88
2017-06-04T12:25:29.837Z,101741.73
2017-06-04T12:27:56.093Z,101739.81
2017-06-04T12:30:22.307Z,101734.67
2017-06-04T12:32:48.541Z,101728.74
2017-06-04T12:35:14.769Z,101739.13
2017-06-04T12:37:41.001Z,101739.95
2017-06-04T12:40:07.380Z,101729.47
2017-06-04T12:42:33.609Z,101729.23
2017-06-04T12:44:59.772Z,101724.66
2017-06-04T12:47:25.966Z,101734.22
2017-06-04T12:49:52.179Z,101735.58
2017-06-04T12:52:18.423Z,101725.86
2017-06-04T12:54:44.670Z,101731.48
2017-06-04T12:57:10.902Z,101733.31
2017-06-04T12:59:37.090Z,101732.83
2017-06-04T13:02:03.322Z,101733.50
2017-06-04T13:04:29.546Z,101728.87
2017-06-04T13:06:55.721Z,101730.06
2017-06-04T13:09:21.939Z,101721.02
2017-06-04T13:11:48.239Z,101729.83
2017-06-04T13:14:14.498Z,101726.36
2017-06-04T13:16:40.689Z,101722.78
2017-06-04T13:19:06.902Z,101730.82
2017-06-04T13:21:33.091Z,101730.23
2017-06-04T13:23:59.418Z,101718.44
2017-06-04T13:26:25.611Z,101728.47
2017-06-04T13:28:51.791Z,101719.62
2017-06-04T13:31:18.485Z,101722.66
2017-06-04T13:33:44.709Z,101725.16
2017-06-04T13:36:10.979Z,101727.95
2017-06-04T13:38:37.158Z,101730.72
2017-06-04T13:41:03.353Z,101730.33
2017-06-04T13:43:29.574Z,101736.48
2017-06-04T13:45:55.750Z,101715.06
2017-06-04T13:48:22.002Z,101724.94
2017-06-04T13:50:48.187Z,101718.37
2017-06-04T13:53:14.407Z,101732.47
2017-06-04T13:55:40.602Z,101715.45
2017-06-04T13:58:06.802Z,101710.83
2017-06-04T14:00:33.207Z,101720.02
2017-06-04T14:02:59.408Z,101722.72
2017-06-04T14:05:25.622Z,101730.95
2017-06-04T14:07:51.807Z,101727.44
2017-06-04T14:10:18.094Z,101727.97
2017-06-04T14:12:44.317Z,101729.93
2017-06-04T14:15:10.538Z,101725.39
2017-06-04T14:17:36.759Z,101737.26
2017-06-04T14:20:03.014Z,101733.16
2017-06-04T14:22:29.207Z,101730.23
2017-06-04T14:24:55.426Z,101727.16
2017-06-04T14:27:21.631Z,101736.84
2017-06-04T14:29:47.809Z,101728.75
2017-06-04T14:32:14.055Z,101717.64
2017-06-04T14:34:40.414Z,101733.95
2017-06-04T14:37:06.651Z,101731.70
2017-06-04T14:39:32.830Z,101731.75
2017-06-04T14:41:59.142Z,101731.08
2017-06-04T14:44:25.336Z,101728.40
2017-06-04T14:46:51.686Z,101744.70
2017-06-04T14:49:18.073Z,101736.66
2017-06-04T14:51:44.243Z,101730.23
2017-06-04T14:54:10.488Z,101732.03
2017-06-04T14:56:36.802Z,101728.86
2017-06-04T14:59:03.039Z,101736.41
2017-06-04T15:01:29.242Z,101726.66
2017-06-04T15:03:55.530Z,101729.58
2017-06-04T15:06:21.807Z,101742.19
2017-06-04T15:08:48.113Z,101727.52
2017-06-04T15:11:14.434Z,101736.31
2017-06-04T15:13:40.694Z,101740.31
2017-06-04T15:16:06.908Z,101732.91
2017-06-04T15:18:33.174Z,101728.86
2017-06-04T15:20:59.400Z,101727.08
2017-06-04T15:23:25.689Z,101724.61
2017-06-04T15:25:51.858Z,101731.09
2017-06-04T15:28:18.046Z,101737.02
2017-06-04T15:30:44.233Z,101738.33
2017-06-04T15:33:10.452Z,101731.39
2017-06-04T15:35:36.830Z,101725.57
2017-06-04T15:38:03.014Z,101726.48
2017-06-04T15:40:29.290Z,101727.39
2017-06-04T15:42:55.512Z,101728.50
2017-06-04T15:45:21.754Z,101728.64
2017-06-04T15:47:47.946Z,101728.16
2017-06-04T15:50:14.176Z,101716.09
2017-06-04T15:52:40.522Z,101727.54
2017-06-04T15:55:06.762Z,101727.45
2017-06-04T15:57:32.945Z,101723.99
2017-06-04T15:59:59.186Z,101728.22
2017-06-04T16:02:25.371Z,101726.98
2017-06-04T16:04:51.579Z,101727.88
2017-06-04T16:07:17.883Z,101737.75
2017-06-04T16:09:44.294Z,101728.84
2017-06-04T16:12:10.535Z,101734.38
2017-06-04T16:14:36.717Z,101734.05
2017-06-04T16:17:03.103Z,101723.77
2017-06-04T16:19:29.389Z,101727.50
2017-06-04T16:21:55.609Z,101737.08
2017-06-04T16:24:21.846Z,101737.85
2017-06-04T16:26:48.101Z,101739.42
2017-06-04T16:29:14.450Z,101735.00
2017-06-04T16:31:40.663Z,101725.96
2017-06-04T16:34:06.951Z,101737.20
2017-06-04T16:36:33.133Z,101734.67
2017-06-04T16:38:59.337Z,101736.44
2017-06-04T16:41:25.683Z,101729.56
2017-06-04T16:43:51.934Z,101725.47
2017-06-04T16:46:18.141Z,101726.70
2017-06-04T16:48:44.433Z,101732.45
2017-06-04T16:51:10.901Z,101729.62
2017-06-04T16:53:37.151Z,101729.97
2017-06-04T16:56:03.369Z,101729.18
2017-06-04T16:58:29.589Z,101729.84
2017-06-04T17:00:55.884Z,101724.03
2017-06-04T17:03:22.090Z,101722.71
2017-06-04T17:05:48.868Z,101719.02
2017-06-04T17:08:15.164Z,101726.09
2017-06-04T17:10:41.346Z,101720.91
2017-06-04T17:13:07.819Z,101718.35
2017-06-04T17:15:34.026Z,101721.52
2017-06-04T17:18:00.407Z,101713.20
2017-06-04T17:20:26.658Z,101715.09
2017-06-04T17:22:52.869Z,101716.73
2017-06-04T17:25:19.130Z,101724.20
2017-06-04T17:27:45.356Z,101722.36
2017-06-04T17:30:11.538Z,101718.84
2017-06-04T17:32:37.867Z,101715.19
2017-06-04T17:35:04.222Z,101722.50
2017-06-04T17:37:30.408Z,101720.30
2017-06-04T17:39:56.665Z,101713.35
2017-06-04T17:42:22.843Z,101713.88
2017-06-04T17:44:49.018Z,101716.43
2017-06-04T17:47:15.326Z,101719.66
2017-06-04T17:49:41.514Z,101713.97
2017-06-04T17:52:07.751Z,101715.47
2017-06-04T17:54:34.041Z,101707.53
2017-06-04T17:57:00.338Z,101711.23
2017-06-04T17:59:26.514Z,101715.56
2017-06-04T18:01:52.714Z,101711.62
2017-06-04T18:04:18.929Z,101713.04
2017-06-04T18:06:45.130Z,101712.77
2017-06-04T18:09:11.538Z,101714.91
2017-06-04T18:11:37.741Z,101715.73
2017-06-04T18:14:04.019Z,101716.47
2017-06-04T18:16:30.383Z,101717.94
2017-06-04T18:18:56.629Z,101720.58
2017-06-04T18:21:22.853Z,101717.41
2017-06-04T18:23:49.142Z,101716.11
2017-06-04T18:26:15.380Z,101714.16
2017-06-04T18:28:41.723Z,101716.19
2017-06-04T18:31:07.958Z,101710.85
2017-06-04T18:33:34.235Z,101715.37
2017-06-04T18:36:00.705Z,101710.75
2017-06-04T18:38:27.499Z,101715.08
2017-06-04T18:40:53.788Z,101712.21
2017-06-04T18:53:00.125Z,101721.48
2017-06-04T18:55:26.452Z,101712.34
2017-06-04T18:57:52.657Z,101715.38
2017-06-04T19:00:18.858Z,101705.57
2017-06-04T19:02:45.096Z,101709.66
2017-06-04T19:05:11.334Z,101709.08
2017-06-04T19:07:37.734Z,101717.11
2017-06-04T19:10:04.035Z,101715.67
2017-06-04T19:12:30.262Z,101715.05
2017-06-04T19:14:56.536Z,101717.16
2017-06-04T19:17:22.791Z,101711.39
2017-06-04T19:19:49.270Z,101715.53
2017-06-04T19:22:15.542Z,101714.33
2017-06-04T19:24:41.757Z,101718.03
2017-06-04T19:27:07.982Z,101717.73
2017-06-04T19:29:34.181Z,101710.11
2017-06-04T19:32:00.567Z,101706.80
2017-06-04T19:34:26.900Z,101716.98
2017-06-04T19:36:53.180Z,101706.79
2017-06-04T19:39:19.502Z,101708.66
2017-06-04T19:41:45.707Z,101707.98
2017-06-04T19:44:11.973Z,101713.94
2017-06-04T19:46:38.219Z,101704.66
2017-06-04T19:49:04.514Z,101716.44
2017-06-04T19:51:30.831Z,101710.81
2017-06-04T19:53:57.276Z,101706.91
2017-06-04T19:56:23.499Z,101704.06
2017-06-04T19:58:49.848Z,101706.52
2017-06-04T20:01:16.123Z,101702.33
2017-06-04T20:03:42.419Z,101703.80
2017-06-04T20:06:08.607Z,101704.81
2017-06-04T20:08:34.956Z,101709.41
2017-06-04T20:11:01.197Z,101712.20
2017-06-04T20:13:27.547Z,101710.12
2017-06-04T20:15:53.934Z,101704.92
2017-06-04T20:18:20.219Z,101713.38
2017-06-04T20:20:46.419Z,101716.59
2017-06-04T20:23:12.685Z,101713.58
2017-06-04T20:25:39.057Z,101711.41
2017-06-04T20:28:05.301Z,101709.63
2017-06-04T20:30:31.568Z,101704.78
2017-06-04T20:32:57.750Z,101707.13
2017-06-04T20:35:24.006Z,101709.81
2017-06-04T20:37:50.218Z,101706.26
2017-06-04T20:40:16.397Z,101706.64
2017-06-04T20:42:42.756Z,101709.95
2017-06-04T20:45:09.038Z,101703.23
2017-06-04T20:47:35.301Z,101698.28
2017-06-04T20:50:01.645Z,101703.23
2017-06-04T20:52:28.768Z,101708.23
2017-06-04T20:54:55.008Z,101707.45
2017-06-04T20:57:21.242Z,101706.92
2017-06-04T20:59:47.538Z,101701.16
2017-06-04T21:02:13.760Z,101702.55
2017-06-04T21:04:40.200Z,101702.03
2017-06-04T21:07:06.410Z,101701.00
2017-06-04T21:09:32.855Z,101700.27
2017-06-04T21:11:59.165Z,101704.48
2017-06-04T21:14:25.340Z,101705.53
2017-06-04T21:16:51.639Z,101698.04
2017-06-04T21:19:17.852Z,101695.91
2017-06-04T21:21:44.122Z,101691.10
2017-06-04T21:24:10.303Z,101691.23
2017-06-04T21:26:36.590Z,101698.48
2017-06-04T21:29:02.792Z,101691.03
2017-06-04T21:31:31.007Z,101691.98
2017-06-04T21:33:57.985Z,101693.95
2017-06-04T21:36:24.243Z,101690.18
2017-06-04T21:38:50.615Z,101697.47
2017-06-04T21:41:16.823Z,101691.22
2017-06-04T21:43:43.183Z,101699.33
2017-06-04T21:46:10.163Z,101694.91
2017-06-04T21:48:36.343Z,101692.22
2017-06-04T21:51:02.660Z,101702.97
2017-06-04T21:53:28.989Z,101697.73
2017-06-04T21:55:55.230Z,101704.92
2017-06-04T21:58:21.449Z,101699.25
2017-06-04T22:00:47.696Z,101699.30
2017-06-04T22:03:14.059Z,101695.34
2017-06-04T22:05:40.278Z,101701.24
2017-06-04T22:08:06.449Z,101700.89
2017-06-04T22:10:32.660Z,101700.81
2017-06-04T22:12:58.835Z,101692.80
2017-06-04T22:15:25.245Z,101695.09
2017-06-04T22:17:51.509Z,101699.22
2017-06-04T22:20:17.833Z,101697.39
2017-06-04T22:22:44.054Z,101700.56
2017-06-04T22:25:10.361Z,101699.26
2017-06-04T22:27:36.545Z,101703.33
2017-06-04T22:30:02.747Z,101706.84
2017-06-04T22:32:29.450Z,101709.70
2017-06-04T22:34:55.636Z,101707.49
2017-06-04T22:37:21.887Z,101710.66
2017-06-04T22:39:48.114Z,101714.81
2017-06-04T22:42:14.424Z,101715.72
2017-06-04T22:44:40.665Z,101717.06
2017-06-04T22:47:06.854Z,101716.24
2017-06-04T22:49:33.882Z,101715.77
2017-06-04T22:52:00.196Z,101722.14
2017-06-04T22:54:26.394Z,101717.63
2017-06-04T22:56:52.664Z,101723.95
2017-06-04T22:59:18.842Z,101724.83
2017-06-04T23:01:45.082Z,101724.83
2017-06-04T23:04:11.382Z,101725.73
2017-06-04T23:06:37.561Z,101728.37
2017-06-04T23:09:03.850Z,101722.66
2017-06-04T23:11:30.058Z,101727.98
2017-06-04T23:13:56.866Z,101727.20
2017-06-04T23:16:23.143Z,101727.64
2017-06-04T23:18:49.470Z,101725.86
2017-06-04T23:21:15.696Z,101725.08
2017-06-04T23:23:41.928Z,101720.19
2017-06-04T23:26:08.151Z,101723.86
2017-06-04T23:28:34.391Z,101723.86
2017-06-04T23:31:00.561Z,101727.06
2017-06-04T23:33:26.806Z,101723.08
2017-06-04T23:35:53.099Z,101726.21
2017-06-04T23:38:19.326Z,101721.75
2017-06-04T23:40:45.512Z,101720.02
2017-06-04T23:43:11.727Z,101720.06
2017-06-04T23:45:37.892Z,101724.52
2017-06-04T23:48:04.159Z,101730.37
2017-06-04T23:50:30.345Z,101717.90
2017-06-04T23:52:56.958Z,101718.42
2017-06-04T23:55:23.242Z,101718.45
2017-06-04T23:57:49.515Z,101721.19
